sensor_id;sensor_type;location;lat;lon;timestamp;P1;durP1;ratioP1;P2;durP2;ratioP2
8183;SDS011;4133;48.752;9.088;2023-01-28T00:01:27;6.33;;;4.80;;
8183;SDS011;4133;48.752;9.088;2023-01-28T00:03:53;6.67;;;5.10;;
8183;SDS011;4133;48.752;9.088;2023-01-28T00:06:19;6.50;;;5.13;;
8183;SDS011;4133;48.752;9.088;2023-01-28T00:08:45;6.03;;;4.90;;
8183;SDS011;4133;48.752;9.088;2023-01-28T00:11:11;5.93;;;4.73;;
8183;SDS011;4133;48.752;9.088;2023-01-28T00:13:38;6.37;;;5.10;;
8183;SDS011;4133;48.752;9.088;2023-01-28T00:16:05;6.73;;;4.90;;
8183;SDS011;4133;48.752;9.088;2023-01-28T00:18:32;7.83;;;5.20;;
8183;SDS011;4133;48.752;9.088;2023-01-28T00:20:59;5.87;;;4.67;;
8183;SDS011;4133;48.752;9.088;2023-01-28T00:23:26;6.47;;;4.80;;
8183;SDS011;4133;48.752;9.088;2023-01-28T00:25:53;7.57;;;5.13;;
8183;SDS011;4133;48.752;9.088;2023-01-28T00:28:19;6.17;;;4.80;;
8183;SDS011;4133;48.752;9.088;2023-01-28T00:30:46;7.17;;;4.77;;
8183;SDS011;4133;48.752;9.088;2023-01-28T00:33:12;6.70;;;5.13;;
8183;SDS011;4133;48.752;9.088;2023-01-28T00:35:38;7.10;;;4.87;;
8183;SDS011;4133;48.752;9.088;2023-01-28T00:38:04;6.30;;;5.00;;
8183;SDS011;4133;48.752;9.088;2023-01-28T00:40:30;7.93;;;5.07;;
8183;SDS011;4133;48.752;9.088;2023-01-28T00:42:56;5.60;;;4.40;;
8183;SDS011;4133;48.752;9.088;2023-01-28T00:45:22;5.20;;;4.17;;
8183;SDS011;4133;48.752;9.088;2023-01-28T00:47:48;7.03;;;5.30;;
8183;SDS011;4133;48.752;9.088;2023-01-28T00:50:25;6.27;;;4.90;;
8183;SDS011;4133;48.752;9.088;2023-01-28T00:52:51;6.13;;;4.53;;
8183;SDS011;4133;48.752;9.088;2023-01-28T00:55:17;6.80;;;4.73;;
8183;SDS011;4133;48.752;9.088;2023-01-28T00:57:43;6.90;;;4.77;;
8183;SDS011;4133;48.752;9.088;2023-01-28T01:00:10;7.07;;;4.93;;
8183;SDS011;4133;48.752;9.088;2023-01-28T01:02:36;6.87;;;4.67;;
8183;SDS011;4133;48.752;9.088;2023-01-28T01:05:02;7.00;;;4.80;;
8183;SDS011;4133;48.752;9.088;2023-01-28T01:07:28;6.53;;;4.53;;
8183;SDS011;4133;48.752;9.088;2023-01-28T01:10:08;6.33;;;4.53;;
8183;SDS011;4133;48.752;9.088;2023-01-28T01:12:34;6.20;;;4.47;;
8183;SDS011;4133;48.752;9.088;2023-01-28T01:15:00;6.20;;;5.00;;
8183;SDS011;4133;48.752;9.088;2023-01-28T01:17:29;6.10;;;4.70;;
8183;SDS011;4133;48.752;9.088;2023-01-28T01:19:55;6.03;;;4.50;;
8183;SDS011;4133;48.752;9.088;2023-01-28T01:22:21;7.27;;;4.70;;
8183;SDS011;4133;48.752;9.088;2023-01-28T01:24:47;6.33;;;4.40;;
8183;SDS011;4133;48.752;9.088;2023-01-28T01:27:13;6.30;;;4.57;;
8183;SDS011;4133;48.752;9.088;2023-01-28T01:29:39;6.90;;;5.00;;
8183;SDS011;4133;48.752;9.088;2023-01-28T01:32:05;5.70;;;4.33;;
8183;SDS011;4133;48.752;9.088;2023-01-28T01:34:31;5.33;;;4.50;;
8183;SDS011;4133;48.752;9.088;2023-01-28T01:36:57;6.33;;;4.30;;
8183;SDS011;4133;48.752;9.088;2023-01-28T01:39:23;5.90;;;4.10;;
8183;SDS011;4133;48.752;9.088;2023-01-28T01:41:49;6.75;;;5.60;;
8183;SDS011;4133;48.752;9.088;2023-01-28T01:47:00;5.93;;;4.30;;
8183;SDS011;4133;48.752;9.088;2023-01-28T01:49:29;5.83;;;4.50;;
8183;SDS011;4133;48.752;9.088;2023-01-28T01:51:56;5.80;;;4.30;;
8183;SDS011;4133;48.752;9.088;2023-01-28T01:54:24;6.87;;;4.83;;
8183;SDS011;4133;48.752;9.088;2023-01-28T01:56:53;5.77;;;4.60;;
8183;SDS011;4133;48.752;9.088;2023-01-28T01:59:21;6.30;;;4.50;;
8183;SDS011;4133;48.752;9.088;2023-01-28T02:01:49;8.00;;;4.50;;
8183;SDS011;4133;48.752;9.088;2023-01-28T02:04:18;5.80;;;4.50;;
8183;SDS011;4133;48.752;9.088;2023-01-28T02:06:45;6.07;;;4.33;;
8183;SDS011;4133;48.752;9.088;2023-01-28T02:11:46;7.43;;;4.87;;
8183;SDS011;4133;48.752;9.088;2023-01-28T02:14:12;7.30;;;4.53;;
8183;SDS011;4133;48.752;9.088;2023-01-28T02:16:38;5.90;;;4.43;;
8183;SDS011;4133;48.752;9.088;2023-01-28T02:19:05;6.73;;;4.50;;
8183;SDS011;4133;48.752;9.088;2023-01-28T02:21:42;6.60;;;4.03;;
8183;SDS011;4133;48.752;9.088;2023-01-28T02:29:49;6.73;;;4.73;;
8183;SDS011;4133;48.752;9.088;2023-01-28T02:37:33;6.13;;;4.63;;
8183;SDS011;4133;48.752;9.088;2023-01-28T02:40:05;5.40;;;4.53;;
8183;SDS011;4133;48.752;9.088;2023-01-28T02:42:34;6.07;;;4.30;;
8183;SDS011;4133;48.752;9.088;2023-01-28T02:45:02;5.30;;;4.10;;
8183;SDS011;4133;48.752;9.088;2023-01-28T02:47:28;5.53;;;4.13;;
8183;SDS011;4133;48.752;9.088;2023-01-28T02:50:24;4.67;;;4.10;;
8183;SDS011;4133;48.752;9.088;2023-01-28T02:53:04;5.47;;;4.07;;
8183;SDS011;4133;48.752;9.088;2023-01-28T03:00:49;4.80;;;3.90;;
8183;SDS011;4133;48.752;9.088;2023-01-28T03:03:18;4.40;;;3.47;;
8183;SDS011;4133;48.752;9.088;2023-01-28T03:05:50;5.13;;;4.00;;
8183;SDS011;4133;48.752;9.088;2023-01-28T03:08:29;5.80;;;3.87;;
8183;SDS011;4133;48.752;9.088;2023-01-28T03:11:14;6.10;;;4.27;;
8183;SDS011;4133;48.752;9.088;2023-01-28T03:13:59;6.97;;;4.30;;
8183;SDS011;4133;48.752;9.088;2023-01-28T03:16:44;5.80;;;4.53;;
8183;SDS011;4133;48.752;9.088;2023-01-28T03:19:29;5.13;;;4.13;;
8183;SDS011;4133;48.752;9.088;2023-01-28T03:22:14;5.33;;;4.17;;
8183;SDS011;4133;48.752;9.088;2023-01-28T03:25:00;5.77;;;4.37;;
8183;SDS011;4133;48.752;9.088;2023-01-28T03:28:19;4.93;;;4.37;;
8183;SDS011;4133;48.752;9.088;2023-01-28T03:31:09;5.57;;;4.47;;
8183;SDS011;4133;48.752;9.088;2023-01-28T03:33:54;6.30;;;4.80;;
8183;SDS011;4133;48.752;9.088;2023-01-28T03:36:40;6.43;;;4.53;;
8183;SDS011;4133;48.752;9.088;2023-01-28T03:39:26;5.93;;;4.73;;
8183;SDS011;4133;48.752;9.088;2023-01-28T03:41:56;6.60;;;5.10;;
8183;SDS011;4133;48.752;9.088;2023-01-28T03:44:22;6.67;;;5.23;;
8183;SDS011;4133;48.752;9.088;2023-01-28T03:47:07;8.13;;;5.50;;
8183;SDS011;4133;48.752;9.088;2023-01-28T03:49:37;6.73;;;5.33;;
8183;SDS011;4133;48.752;9.088;2023-01-28T03:52:03;8.13;;;5.90;;
8183;SDS011;4133;48.752;9.088;2023-01-28T03:54:29;7.37;;;5.70;;
8183;SDS011;4133;48.752;9.088;2023-01-28T03:56:55;6.73;;;5.47;;
8183;SDS011;4133;48.752;9.088;2023-01-28T03:59:21;7.77;;;5.57;;
8183;SDS011;4133;48.752;9.088;2023-01-28T04:01:47;6.90;;;5.20;;
8183;SDS011;4133;48.752;9.088;2023-01-28T04:04:14;6.90;;;5.13;;
8183;SDS011;4133;48.752;9.088;2023-01-28T04:06:47;9.57;;;6.30;;
8183;SDS011;4133;48.752;9.088;2023-01-28T04:09:13;9.60;;;6.40;;
8183;SDS011;4133;48.752;9.088;2023-01-28T04:11:39;8.03;;;6.13;;
8183;SDS011;4133;48.752;9.088;2023-01-28T04:14:05;9.77;;;6.17;;
8183;SDS011;4133;48.752;9.088;2023-01-28T04:16:31;8.57;;;5.90;;
8183;SDS011;4133;48.752;9.088;2023-01-28T04:18:57;7.60;;;6.07;;
8183;SDS011;4133;48.752;9.088;2023-01-28T04:21:23;7.60;;;6.03;;
8183;SDS011;4133;48.752;9.088;2023-01-28T04:23:49;10.13;;;6.00;;
8183;SDS011;4133;48.752;9.088;2023-01-28T04:26:15;8.43;;;6.33;;
8183;SDS011;4133;48.752;9.088;2023-01-28T04:28:42;7.47;;;6.07;;
8183;SDS011;4133;48.752;9.088;2023-01-28T04:31:08;9.97;;;6.23;;
8183;SDS011;4133;48.752;9.088;2023-01-28T04:33:34;7.53;;;5.90;;
8183;SDS011;4133;48.752;9.088;2023-01-28T04:36:00;8.60;;;6.20;;
8183;SDS011;4133;48.752;9.088;2023-01-28T04:38:26;8.33;;;6.10;;
8183;SDS011;4133;48.752;9.088;2023-01-28T04:40:52;8.57;;;6.40;;
8183;SDS011;4133;48.752;9.088;2023-01-28T04:43:18;7.40;;;6.10;;
8183;SDS011;4133;48.752;9.088;2023-01-28T04:45:45;8.87;;;6.37;;
8183;SDS011;4133;48.752;9.088;2023-01-28T04:48:12;8.60;;;6.30;;
8183;SDS011;4133;48.752;9.088;2023-01-28T04:56:13;9.23;;;6.40;;
8183;SDS011;4133;48.752;9.088;2023-01-28T04:58:39;9.47;;;7.07;;
8183;SDS011;4133;48.752;9.088;2023-01-28T05:01:05;9.10;;;6.73;;
8183;SDS011;4133;48.752;9.088;2023-01-28T05:03:31;9.57;;;6.87;;
8183;SDS011;4133;48.752;9.088;2023-01-28T05:05:57;9.93;;;7.10;;
8183;SDS011;4133;48.752;9.088;2023-01-28T05:08:23;9.73;;;6.93;;
8183;SDS011;4133;48.752;9.088;2023-01-28T05:10:48;8.53;;;6.93;;
8183;SDS011;4133;48.752;9.088;2023-01-28T05:13:15;9.30;;;7.03;;
8183;SDS011;4133;48.752;9.088;2023-01-28T05:15:40;9.17;;;7.23;;
8183;SDS011;4133;48.752;9.088;2023-01-28T05:18:06;9.03;;;7.00;;
8183;SDS011;4133;48.752;9.088;2023-01-28T05:20:32;9.87;;;7.03;;
8183;SDS011;4133;48.752;9.088;2023-01-28T05:22:58;9.03;;;7.00;;
8183;SDS011;4133;48.752;9.088;2023-01-28T05:25:24;10.17;;;7.33;;
8183;SDS011;4133;48.752;9.088;2023-01-28T05:27:51;10.47;;;7.27;;
8183;SDS011;4133;48.752;9.088;2023-01-28T05:30:18;9.03;;;6.60;;
8183;SDS011;4133;48.752;9.088;2023-01-28T05:32:44;9.30;;;7.20;;
8183;SDS011;4133;48.752;9.088;2023-01-28T05:35:10;9.57;;;6.80;;
8183;SDS011;4133;48.752;9.088;2023-01-28T05:37:36;9.73;;;7.30;;
8183;SDS011;4133;48.752;9.088;2023-01-28T05:40:02;8.97;;;6.73;;
8183;SDS011;4133;48.752;9.088;2023-01-28T05:42:28;10.53;;;6.80;;
8183;SDS011;4133;48.752;9.088;2023-01-28T05:44:54;9.27;;;6.93;;
8183;SDS011;4133;48.752;9.088;2023-01-28T05:47:20;10.13;;;7.17;;
8183;SDS011;4133;48.752;9.088;2023-01-28T05:52:50;9.03;;;6.73;;
8183;SDS011;4133;48.752;9.088;2023-01-28T05:55:16;8.60;;;6.07;;
8183;SDS011;4133;48.752;9.088;2023-01-28T05:57:42;10.23;;;7.27;;
8183;SDS011;4133;48.752;9.088;2023-01-28T06:00:08;11.07;;;6.67;;
8183;SDS011;4133;48.752;9.088;2023-01-28T06:02:34;8.77;;;6.40;;
8183;SDS011;4133;48.752;9.088;2023-01-28T06:05:00;7.83;;;6.57;;
8183;SDS011;4133;48.752;9.088;2023-01-28T06:07:26;8.70;;;7.07;;
8183;SDS011;4133;48.752;9.088;2023-01-28T06:09:52;8.83;;;6.50;;
8183;SDS011;4133;48.752;9.088;2023-01-28T06:12:18;9.00;;;6.77;;
8183;SDS011;4133;48.752;9.088;2023-01-28T06:14:44;10.50;;;6.93;;
8183;SDS011;4133;48.752;9.088;2023-01-28T06:17:10;8.67;;;7.07;;
8183;SDS011;4133;48.752;9.088;2023-01-28T06:19:36;9.57;;;6.70;;
8183;SDS011;4133;48.752;9.088;2023-01-28T06:22:02;10.80;;;6.93;;
8183;SDS011;4133;48.752;9.088;2023-01-28T06:24:28;9.17;;;6.63;;
8183;SDS011;4133;48.752;9.088;2023-01-28T06:26:54;8.20;;;6.53;;
8183;SDS011;4133;48.752;9.088;2023-01-28T06:29:20;10.07;;;6.70;;
8183;SDS011;4133;48.752;9.088;2023-01-28T06:31:46;7.07;;;6.00;;
8183;SDS011;4133;48.752;9.088;2023-01-28T06:34:12;8.20;;;6.63;;
8183;SDS011;4133;48.752;9.088;2023-01-28T06:36:39;8.07;;;6.30;;
8183;SDS011;4133;48.752;9.088;2023-01-28T06:39:05;9.20;;;6.97;;
8183;SDS011;4133;48.752;9.088;2023-01-28T06:41:31;7.83;;;6.47;;
8183;SDS011;4133;48.752;9.088;2023-01-28T06:43:57;9.10;;;6.57;;
8183;SDS011;4133;48.752;9.088;2023-01-28T06:46:23;8.93;;;6.53;;
8183;SDS011;4133;48.752;9.088;2023-01-28T06:48:49;10.20;;;6.43;;
8183;SDS011;4133;48.752;9.088;2023-01-28T06:51:15;8.93;;;6.43;;
8183;SDS011;4133;48.752;9.088;2023-01-28T06:53:41;8.83;;;6.60;;
8183;SDS011;4133;48.752;9.088;2023-01-28T06:56:07;7.73;;;5.90;;
8183;SDS011;4133;48.752;9.088;2023-01-28T06:58:33;8.23;;;6.40;;
8183;SDS011;4133;48.752;9.088;2023-01-28T07:00:59;7.97;;;6.00;;
8183;SDS011;4133;48.752;9.088;2023-01-28T07:03:25;7.87;;;6.03;;
8183;SDS011;4133;48.752;9.088;2023-01-28T07:05:51;7.43;;;6.23;;
8183;SDS011;4133;48.752;9.088;2023-01-28T07:08:17;7.47;;;5.63;;
8183;SDS011;4133;48.752;9.088;2023-01-28T07:10:43;7.87;;;5.97;;
8183;SDS011;4133;48.752;9.088;2023-01-28T07:13:09;7.70;;;5.93;;
8183;SDS011;4133;48.752;9.088;2023-01-28T07:15:35;7.23;;;5.70;;
8183;SDS011;4133;48.752;9.088;2023-01-28T07:18:02;8.37;;;6.60;;
8183;SDS011;4133;48.752;9.088;2023-01-28T07:20:28;8.97;;;6.17;;
8183;SDS011;4133;48.752;9.088;2023-01-28T07:22:54;8.80;;;6.83;;
8183;SDS011;4133;48.752;9.088;2023-01-28T07:25:20;8.53;;;6.43;;
8183;SDS011;4133;48.752;9.088;2023-01-28T07:27:50;8.07;;;6.30;;
8183;SDS011;4133;48.752;9.088;2023-01-28T07:30:16;8.90;;;6.20;;
8183;SDS011;4133;48.752;9.088;2023-01-28T07:32:43;8.17;;;6.37;;
8183;SDS011;4133;48.752;9.088;2023-01-28T07:35:09;10.43;;;6.30;;
8183;SDS011;4133;48.752;9.088;2023-01-28T07:37:35;9.77;;;6.77;;
8183;SDS011;4133;48.752;9.088;2023-01-28T07:40:01;9.60;;;6.80;;
8183;SDS011;4133;48.752;9.088;2023-01-28T07:42:28;9.63;;;6.77;;
8183;SDS011;4133;48.752;9.088;2023-01-28T07:44:54;8.97;;;6.50;;
8183;SDS011;4133;48.752;9.088;2023-01-28T07:47:20;7.77;;;6.17;;
8183;SDS011;4133;48.752;9.088;2023-01-28T07:49:46;8.17;;;6.27;;
8183;SDS011;4133;48.752;9.088;2023-01-28T07:52:12;8.67;;;6.83;;
8183;SDS011;4133;48.752;9.088;2023-01-28T07:54:39;8.23;;;6.33;;
8183;SDS011;4133;48.752;9.088;2023-01-28T07:57:08;9.47;;;6.93;;
8183;SDS011;4133;48.752;9.088;2023-01-28T07:59:34;9.53;;;7.57;;
8183;SDS011;4133;48.752;9.088;2023-01-28T08:02:02;10.00;;;7.27;;
8183;SDS011;4133;48.752;9.088;2023-01-28T08:04:28;8.70;;;6.93;;
8183;SDS011;4133;48.752;9.088;2023-01-28T08:06:54;9.13;;;6.93;;
8183;SDS011;4133;48.752;9.088;2023-01-28T08:09:21;10.23;;;6.83;;
8183;SDS011;4133;48.752;9.088;2023-01-28T08:11:47;9.60;;;7.00;;
8183;SDS011;4133;48.752;9.088;2023-01-28T08:14:13;11.13;;;7.93;;
8183;SDS011;4133;48.752;9.088;2023-01-28T08:16:39;10.77;;;7.60;;
8183;SDS011;4133;48.752;9.088;2023-01-28T08:19:05;10.33;;;7.80;;
8183;SDS011;4133;48.752;9.088;2023-01-28T08:24:02;9.77;;;7.00;;
8183;SDS011;4133;48.752;9.088;2023-01-28T08:26:28;9.63;;;7.37;;
8183;SDS011;4133;48.752;9.088;2023-01-28T08:28:54;10.80;;;7.60;;
8183;SDS011;4133;48.752;9.088;2023-01-28T08:31:20;10.90;;;9.70;;
8183;SDS011;4133;48.752;9.088;2023-01-28T08:33:46;11.37;;;8.30;;
8183;SDS011;4133;48.752;9.088;2023-01-28T08:36:12;10.37;;;7.27;;
8183;SDS011;4133;48.752;9.088;2023-01-28T08:38:38;9.83;;;7.17;;
8183;SDS011;4133;48.752;9.088;2023-01-28T08:41:04;10.23;;;7.13;;
8183;SDS011;4133;48.752;9.088;2023-01-28T08:43:30;11.57;;;7.53;;
8183;SDS011;4133;48.752;9.088;2023-01-28T08:45:56;10.37;;;7.33;;
8183;SDS011;4133;48.752;9.088;2023-01-28T08:48:22;9.87;;;7.20;;
8183;SDS011;4133;48.752;9.088;2023-01-28T08:50:48;11.17;;;7.40;;
8183;SDS011;4133;48.752;9.088;2023-01-28T08:53:16;8.83;;;7.37;;
8183;SDS011;4133;48.752;9.088;2023-01-28T08:55:42;12.60;;;8.03;;
8183;SDS011;4133;48.752;9.088;2023-01-28T08:58:12;11.53;;;7.60;;
8183;SDS011;4133;48.752;9.088;2023-01-28T09:00:38;11.57;;;8.47;;
8183;SDS011;4133;48.752;9.088;2023-01-28T09:03:05;10.53;;;8.17;;
8183;SDS011;4133;48.752;9.088;2023-01-28T09:05:31;11.37;;;8.07;;
8183;SDS011;4133;48.752;9.088;2023-01-28T09:08:05;11.43;;;8.07;;
8183;SDS011;4133;48.752;9.088;2023-01-28T09:10:31;10.10;;;8.03;;
8183;SDS011;4133;48.752;9.088;2023-01-28T09:12:57;11.93;;;8.03;;
8183;SDS011;4133;48.752;9.088;2023-01-28T09:15:23;12.10;;;8.70;;
8183;SDS011;4133;48.752;9.088;2023-01-28T09:17:55;10.00;;;7.73;;
8183;SDS011;4133;48.752;9.088;2023-01-28T09:20:24;12.07;;;8.80;;
8183;SDS011;4133;48.752;9.088;2023-01-28T09:22:51;11.00;;;8.03;;
8183;SDS011;4133;48.752;9.088;2023-01-28T09:25:17;11.00;;;8.43;;
8183;SDS011;4133;48.752;9.088;2023-01-28T09:27:43;11.47;;;8.57;;
8183;SDS011;4133;48.752;9.088;2023-01-28T09:30:09;10.77;;;7.77;;
8183;SDS011;4133;48.752;9.088;2023-01-28T09:32:37;12.00;;;8.37;;
8183;SDS011;4133;48.752;9.088;2023-01-28T09:35:03;14.10;;;8.80;;
8183;SDS011;4133;48.752;9.088;2023-01-28T09:37:29;13.50;;;8.83;;
8183;SDS011;4133;48.752;9.088;2023-01-28T09:39:55;11.87;;;8.10;;
8183;SDS011;4133;48.752;9.088;2023-01-28T09:45:16;12.70;;;8.60;;
8183;SDS011;4133;48.752;9.088;2023-01-28T09:47:45;11.43;;;8.37;;
8183;SDS011;4133;48.752;9.088;2023-01-28T09:50:31;11.10;;;8.17;;
8183;SDS011;4133;48.752;9.088;2023-01-28T09:53:04;11.37;;;8.33;;
8183;SDS011;4133;48.752;9.088;2023-01-28T09:55:32;10.47;;;7.80;;
8183;SDS011;4133;48.752;9.088;2023-01-28T09:57:58;12.00;;;8.63;;
8183;SDS011;4133;48.752;9.088;2023-01-28T10:00:37;12.60;;;8.87;;
8183;SDS011;4133;48.752;9.088;2023-01-28T10:03:12;12.37;;;8.23;;
8183;SDS011;4133;48.752;9.088;2023-01-28T10:05:50;11.90;;;8.73;;
8183;SDS011;4133;48.752;9.088;2023-01-28T10:08:33;11.90;;;8.63;;
8183;SDS011;4133;48.752;9.088;2023-01-28T10:11:13;14.17;;;8.57;;
8183;SDS011;4133;48.752;9.088;2023-01-28T10:13:52;11.77;;;8.50;;
8183;SDS011;4133;48.752;9.088;2023-01-28T10:23:49;13.07;;;8.30;;
8183;SDS011;4133;48.752;9.088;2023-01-28T10:26:21;10.90;;;8.20;;
8183;SDS011;4133;48.752;9.088;2023-01-28T10:28:52;10.73;;;8.20;;
8183;SDS011;4133;48.752;9.088;2023-01-28T10:31:19;11.93;;;8.70;;
8183;SDS011;4133;48.752;9.088;2023-01-28T10:33:45;11.37;;;8.43;;
8183;SDS011;4133;48.752;9.088;2023-01-28T10:36:11;12.80;;;8.60;;
8183;SDS011;4133;48.752;9.088;2023-01-28T10:38:37;11.93;;;8.60;;
8183;SDS011;4133;48.752;9.088;2023-01-28T10:41:04;11.07;;;8.13;;
8183;SDS011;4133;48.752;9.088;2023-01-28T10:43:34;13.27;;;9.03;;
8183;SDS011;4133;48.752;9.088;2023-01-28T10:46:04;11.77;;;8.63;;
8183;SDS011;4133;48.752;9.088;2023-01-28T10:48:33;12.93;;;8.90;;
8183;SDS011;4133;48.752;9.088;2023-01-28T10:51:02;10.87;;;8.33;;
8183;SDS011;4133;48.752;9.088;2023-01-28T10:53:43;12.10;;;9.00;;
8183;SDS011;4133;48.752;9.088;2023-01-28T10:56:13;11.13;;;8.20;;
8183;SDS011;4133;48.752;9.088;2023-01-28T10:58:49;12.00;;;8.83;;
8183;SDS011;4133;48.752;9.088;2023-01-28T11:01:18;12.13;;;8.87;;
8183;SDS011;4133;48.752;9.088;2023-01-28T11:03:55;14.07;;;9.73;;
8183;SDS011;4133;48.752;9.088;2023-01-28T11:06:25;12.50;;;8.80;;
8183;SDS011;4133;48.752;9.088;2023-01-28T11:08:52;10.20;;;8.07;;
8183;SDS011;4133;48.752;9.088;2023-01-28T11:11:23;11.60;;;8.57;;
8183;SDS011;4133;48.752;9.088;2023-01-28T11:13:50;11.87;;;8.77;;
8183;SDS011;4133;48.752;9.088;2023-01-28T11:16:18;10.87;;;8.17;;
8183;SDS011;4133;48.752;9.088;2023-01-28T11:18:54;11.93;;;8.40;;
8183;SDS011;4133;48.752;9.088;2023-01-28T11:21:24;10.77;;;7.97;;
8183;SDS011;4133;48.752;9.088;2023-01-28T11:23:58;11.80;;;8.33;;
8183;SDS011;4133;48.752;9.088;2023-01-28T11:26:29;10.87;;;8.37;;
8183;SDS011;4133;48.752;9.088;2023-01-28T11:28:57;11.53;;;8.50;;
8183;SDS011;4133;48.752;9.088;2023-01-28T11:31:23;11.00;;;8.03;;
8183;SDS011;4133;48.752;9.088;2023-01-28T11:33:59;11.43;;;8.73;;
8183;SDS011;4133;48.752;9.088;2023-01-28T11:36:29;11.87;;;8.77;;
8183;SDS011;4133;48.752;9.088;2023-01-28T11:38:57;10.67;;;8.17;;
8183;SDS011;4133;48.752;9.088;2023-01-28T11:41:28;12.40;;;8.90;;
8183;SDS011;4133;48.752;9.088;2023-01-28T11:43:54;11.37;;;8.30;;
8183;SDS011;4133;48.752;9.088;2023-01-28T11:49:18;13.07;;;8.73;;
8183;SDS011;4133;48.752;9.088;2023-01-28T11:51:49;11.57;;;8.20;;
8183;SDS011;4133;48.752;9.088;2023-01-28T12:02:00;12.00;;;8.60;;
8183;SDS011;4133;48.752;9.088;2023-01-28T12:04:37;13.00;;;8.77;;
8183;SDS011;4133;48.752;9.088;2023-01-28T12:12:28;14.20;;;9.37;;
8183;SDS011;4133;48.752;9.088;2023-01-28T12:17:31;13.00;;;8.67;;
8183;SDS011;4133;48.752;9.088;2023-01-28T12:25:24;15.00;;;9.43;;
8183;SDS011;4133;48.752;9.088;2023-01-28T12:30:30;12.23;;;8.60;;
8183;SDS011;4133;48.752;9.088;2023-01-28T12:33:07;13.70;;;8.83;;
8183;SDS011;4133;48.752;9.088;2023-01-28T12:40:54;13.10;;;9.10;;
8183;SDS011;4133;48.752;9.088;2023-01-28T12:46:11;15.50;;;9.90;;
8183;SDS011;4133;48.752;9.088;2023-01-28T12:48:46;12.17;;;9.00;;
8183;SDS011;4133;48.752;9.088;2023-01-28T12:51:19;15.00;;;9.83;;
8183;SDS011;4133;48.752;9.088;2023-01-28T12:56:16;14.17;;;10.07;;
8183;SDS011;4133;48.752;9.088;2023-01-28T12:58:51;15.63;;;9.47;;
8183;SDS011;4133;48.752;9.088;2023-01-28T13:01:20;17.30;;;10.03;;
8183;SDS011;4133;48.752;9.088;2023-01-28T13:06:31;13.27;;;9.23;;
8183;SDS011;4133;48.752;9.088;2023-01-28T13:09:02;14.90;;;9.67;;
8183;SDS011;4133;48.752;9.088;2023-01-28T13:11:35;16.53;;;9.73;;
8183;SDS011;4133;48.752;9.088;2023-01-28T13:14:02;13.20;;;8.83;;
8183;SDS011;4133;48.752;9.088;2023-01-28T13:16:29;14.17;;;8.67;;
8183;SDS011;4133;48.752;9.088;2023-01-28T13:19:03;14.80;;;8.97;;
8183;SDS011;4133;48.752;9.088;2023-01-28T13:29:07;11.57;;;7.60;;
8183;SDS011;4133;48.752;9.088;2023-01-28T13:31:45;13.63;;;10.43;;
8183;SDS011;4133;48.752;9.088;2023-01-28T13:37:33;10.53;;;7.63;;
8183;SDS011;4133;48.752;9.088;2023-01-28T13:39:54;10.07;;;7.30;;
8183;SDS011;4133;48.752;9.088;2023-01-28T13:42:26;10.90;;;6.67;;
8183;SDS011;4133;48.752;9.088;2023-01-28T13:44:52;9.60;;;6.97;;
8183;SDS011;4133;48.752;9.088;2023-01-28T13:47:32;9.33;;;6.30;;
8183;SDS011;4133;48.752;9.088;2023-01-28T13:50:00;10.03;;;5.77;;
8183;SDS011;4133;48.752;9.088;2023-01-28T13:52:43;8.63;;;5.70;;
8183;SDS011;4133;48.752;9.088;2023-01-28T14:01:18;9.60;;;6.03;;
8183;SDS011;4133;48.752;9.088;2023-01-28T14:03:28;9.63;;;6.47;;
8183;SDS011;4133;48.752;9.088;2023-01-28T14:06:06;8.93;;;6.13;;
8183;SDS011;4133;48.752;9.088;2023-01-28T14:11:27;10.13;;;6.93;;
8183;SDS011;4133;48.752;9.088;2023-01-28T14:18:52;9.73;;;6.63;;
8183;SDS011;4133;48.752;9.088;2023-01-28T14:23:53;11.33;;;7.83;;
8183;SDS011;4133;48.752;9.088;2023-01-28T14:28:56;10.47;;;7.27;;
8183;SDS011;4133;48.752;9.088;2023-01-28T14:31:31;12.17;;;7.40;;
8183;SDS011;4133;48.752;9.088;2023-01-28T14:34:03;12.07;;;7.60;;
8183;SDS011;4133;48.752;9.088;2023-01-28T14:36:30;11.17;;;7.70;;
8183;SDS011;4133;48.752;9.088;2023-01-28T14:39:00;11.57;;;7.77;;
8183;SDS011;4133;48.752;9.088;2023-01-28T14:41:27;9.63;;;6.93;;
8183;SDS011;4133;48.752;9.088;2023-01-28T14:43:54;10.10;;;7.50;;
8183;SDS011;4133;48.752;9.088;2023-01-28T14:46:44;11.03;;;7.10;;
8183;SDS011;4133;48.752;9.088;2023-01-28T14:49:24;9.70;;;7.47;;
8183;SDS011;4133;48.752;9.088;2023-01-28T14:54:35;10.23;;;7.13;;
8183;SDS011;4133;48.752;9.088;2023-01-28T14:57:11;8.90;;;6.97;;
8183;SDS011;4133;48.752;9.088;2023-01-28T15:02:14;8.90;;;6.77;;
8183;SDS011;4133;48.752;9.088;2023-01-28T15:04:42;8.43;;;6.73;;
8183;SDS011;4133;48.752;9.088;2023-01-28T15:07:26;9.43;;;7.30;;
8183;SDS011;4133;48.752;9.088;2023-01-28T15:10:02;9.40;;;6.60;;
8183;SDS011;4133;48.752;9.088;2023-01-28T15:12:29;9.70;;;7.20;;
8183;SDS011;4133;48.752;9.088;2023-01-28T15:14:57;8.60;;;6.53;;
8183;SDS011;4133;48.752;9.088;2023-01-28T15:17:25;8.20;;;6.30;;
8183;SDS011;4133;48.752;9.088;2023-01-28T15:19:55;7.17;;;5.67;;
8183;SDS011;4133;48.752;9.088;2023-01-28T15:22:26;8.47;;;6.20;;
8183;SDS011;4133;48.752;9.088;2023-01-28T15:24:53;7.20;;;5.87;;
8183;SDS011;4133;48.752;9.088;2023-01-28T15:27:23;7.20;;;6.17;;
8183;SDS011;4133;48.752;9.088;2023-01-28T15:29:51;7.90;;;6.10;;
8183;SDS011;4133;48.752;9.088;2023-01-28T15:32:22;7.47;;;6.37;;
8183;SDS011;4133;48.752;9.088;2023-01-28T15:34:48;7.70;;;6.00;;
8183;SDS011;4133;48.752;9.088;2023-01-28T15:37:15;7.70;;;5.73;;
8183;SDS011;4133;48.752;9.088;2023-01-28T15:39:42;5.93;;;5.27;;
8183;SDS011;4133;48.752;9.088;2023-01-28T15:42:13;7.93;;;5.53;;
8183;SDS011;4133;48.752;9.088;2023-01-28T15:44:43;9.37;;;6.03;;
8183;SDS011;4133;48.752;9.088;2023-01-28T15:47:14;8.03;;;6.23;;
8183;SDS011;4133;48.752;9.088;2023-01-28T15:49:41;7.77;;;6.00;;
8183;SDS011;4133;48.752;9.088;2023-01-28T15:52:08;6.30;;;5.17;;
8183;SDS011;4133;48.752;9.088;2023-01-28T15:54:38;6.83;;;5.50;;
8183;SDS011;4133;48.752;9.088;2023-01-28T15:59:40;7.73;;;5.90;;
8183;SDS011;4133;48.752;9.088;2023-01-28T16:02:13;6.87;;;5.93;;
8183;SDS011;4133;48.752;9.088;2023-01-28T16:04:40;8.00;;;5.33;;
8183;SDS011;4133;48.752;9.088;2023-01-28T16:07:06;11.73;;;10.20;;
8183;SDS011;4133;48.752;9.088;2023-01-28T16:09:33;7.67;;;6.47;;
8183;SDS011;4133;48.752;9.088;2023-01-28T16:12:03;9.60;;;8.60;;
8183;SDS011;4133;48.752;9.088;2023-01-28T16:14:32;35.07;;;26.07;;
8183;SDS011;4133;48.752;9.088;2023-01-28T16:16:59;7.50;;;6.13;;
8183;SDS011;4133;48.752;9.088;2023-01-28T16:19:30;10.40;;;9.13;;
8183;SDS011;4133;48.752;9.088;2023-01-28T16:21:56;8.80;;;6.07;;
8183;SDS011;4133;48.752;9.088;2023-01-28T16:24:27;10.33;;;8.60;;
8183;SDS011;4133;48.752;9.088;2023-01-28T16:26:54;7.80;;;6.43;;
8183;SDS011;4133;48.752;9.088;2023-01-28T16:29:24;8.73;;;7.13;;
8183;SDS011;4133;48.752;9.088;2023-01-28T16:31:50;16.25;;;13.57;;
8183;SDS011;4133;48.752;9.088;2023-01-28T16:34:16;10.20;;;8.53;;
8183;SDS011;4133;48.752;9.088;2023-01-28T16:36:42;14.00;;;12.80;;
8183;SDS011;4133;48.752;9.088;2023-01-28T16:39:08;7.10;;;6.37;;
8183;SDS011;4133;48.752;9.088;2023-01-28T16:41:39;8.57;;;7.57;;
8183;SDS011;4133;48.752;9.088;2023-01-28T16:44:05;7.33;;;5.73;;
8183;SDS011;4133;48.752;9.088;2023-01-28T16:46:31;7.90;;;6.70;;
8183;SDS011;4133;48.752;9.088;2023-01-28T16:48:58;6.80;;;4.80;;
8183;SDS011;4133;48.752;9.088;2023-01-28T16:51:24;7.70;;;6.90;;
8183;SDS011;4133;48.752;9.088;2023-01-28T16:53:50;8.70;;;7.80;;
8183;SDS011;4133;48.752;9.088;2023-01-28T16:56:20;6.77;;;5.27;;
8183;SDS011;4133;48.752;9.088;2023-01-28T16:58:47;11.97;;;10.77;;
8183;SDS011;4133;48.752;9.088;2023-01-28T17:01:13;8.23;;;7.43;;
8183;SDS011;4133;48.752;9.088;2023-01-28T17:03:39;9.17;;;8.27;;
8183;SDS011;4133;48.752;9.088;2023-01-28T17:06:06;6.73;;;5.43;;
8183;SDS011;4133;48.752;9.088;2023-01-28T17:08:32;6.33;;;5.23;;
8183;SDS011;4133;48.752;9.088;2023-01-28T17:10:58;6.50;;;5.07;;
8183;SDS011;4133;48.752;9.088;2023-01-28T17:13:24;5.87;;;5.20;;
8183;SDS011;4133;48.752;9.088;2023-01-28T17:15:50;7.20;;;5.57;;
8183;SDS011;4133;48.752;9.088;2023-01-28T17:18:17;6.40;;;5.53;;
8183;SDS011;4133;48.752;9.088;2023-01-28T17:20:43;6.77;;;5.67;;